sensor_id;sensor_type;location;lat;lon;timestamp;pressure;altitude;pressure_sealevel;temperature;humidity
56944;BME280;42848;42.524;12.052;2023-02-13T00:00:36;98253.63;;;6.17;89.97
56944;BME280;42848;42.524;12.052;2023-02-13T00:03:03;98254.84;;;6.04;91.72
56944;BME280;42848;42.524;12.052;2023-02-13T00:05:29;98260.25;;;6.04;93.04
56944;BME280;42848;42.524;12.052;2023-02-13T00:07:55;98261.75;;;5.95;93.89
56944;BME280;42848;42.524;12.052;2023-02-13T00:10:20;98254.53;;;6.01;95.00
56944;BME280;42848;42.524;12.052;2023-02-13T00:12:46;98256.84;;;5.92;95.30
56944;BME280;42848;42.524;12.052;2023-02-13T00:15:11;98247.25;;;6.01;95.59
56944;BME280;42848;42.524;12.052;2023-02-13T00:17:37;98261.88;;;6.05;96.60
56944;BME280;42848;42.524;12.052;2023-02-13T00:20:04;98251.34;;;6.04;96.09
56944;BME280;42848;42.524;12.052;2023-02-13T00:22:30;98251.78;;;5.95;97.46
56944;BME280;42848;42.524;12.052;2023-02-13T00:24:59;98247.00;;;6.03;96.96
56944;BME280;42848;42.524;12.052;2023-02-13T00:27:25;98247.50;;;5.99;97.34
56944;BME280;42848;42.524;12.052;2023-02-13T00:29:50;98240.50;;;5.98;97.83
56944;BME280;42848;42.524;12.052;2023-02-13T00:32:16;98244.25;;;5.97;98.52
56944;BME280;42848;42.524;12.052;2023-02-13T00:34:41;98261.28;;;6.03;98.78
56944;BME280;42848;42.524;12.052;2023-02-13T00:37:08;98254.97;;;5.92;99.60
56944;BME280;42848;42.524;12.052;2023-02-13T00:39:34;98243.19;;;5.98;99.24
56944;BME280;42848;42.524;12.052;2023-02-13T00:42:00;98249.66;;;5.97;98.91
56944;BME280;42848;42.524;12.052;2023-02-13T00:44:25;98247.38;;;5.89;100.00
56944;BME280;42848;42.524;12.052;2023-02-13T00:46:51;98244.84;;;5.83;100.00
56944;BME280;42848;42.524;12.052;2023-02-13T00:49:17;98244.81;;;5.78;100.00
56944;BME280;42848;42.524;12.052;2023-02-13T00:51:42;98258.53;;;5.76;100.00
56944;BME280;42848;42.524;12.052;2023-02-13T00:54:08;98268.13;;;5.89;100.00
56944;BME280;42848;42.524;12.052;2023-02-13T00:56:33;98272.56;;;5.78;100.00
56944;BME280;42848;42.524;12.052;2023-02-13T00:58:59;98272.63;;;5.61;100.00
56944;BME280;42848;42.524;12.052;2023-02-13T01:01:25;98278.78;;;5.79;100.00
56944;BME280;42848;42.524;12.052;2023-02-13T01:03:50;98271.44;;;5.74;100.00
56944;BME280;42848;42.524;12.052;2023-02-13T01:06:16;98268.25;;;5.77;100.00
56944;BME280;42848;42.524;12.052;2023-02-13T01:08:41;98270.94;;;5.77;100.00
56944;BME280;42848;42.524;12.052;2023-02-13T01:11:08;98275.97;;;5.68;100.00
56944;BME280;42848;42.524;12.052;2023-02-13T01:13:33;98279.50;;;5.74;100.00
56944;BME280;42848;42.524;12.052;2023-02-13T01:16:00;98289.19;;;5.70;100.00
56944;BME280;42848;42.524;12.052;2023-02-13T01:18:25;98287.72;;;5.84;100.00
56944;BME280;42848;42.524;12.052;2023-02-13T01:21:03;98289.38;;;5.85;100.00
56944;BME280;42848;42.524;12.052;2023-02-13T01:23:31;98286.59;;;5.80;100.00
56944;BME280;42848;42.524;12.052;2023-02-13T01:25:57;98289.22;;;5.75;100.00
56944;BME280;42848;42.524;12.052;2023-02-13T01:28:23;98286.91;;;5.84;100.00
56944;BME280;42848;42.524;12.052;2023-02-13T01:30:55;98292.28;;;5.84;100.00
56944;BME280;42848;42.524;12.052;2023-02-13T01:33:22;98293.63;;;5.81;100.00
56944;BME280;42848;42.524;12.052;2023-02-13T01:35:49;98296.41;;;5.86;100.00
56944;BME280;42848;42.524;12.052;2023-02-13T01:38:15;98290.03;;;5.76;100.00
56944;BME280;42848;42.524;12.052;2023-02-13T01:40:49;98289.31;;;5.80;100.00
56944;BME280;42848;42.524;12.052;2023-02-13T01:43:15;98286.69;;;5.85;100.00
56944;BME280;42848;42.524;12.052;2023-02-13T01:45:43;98286.75;;;5.90;100.00
56944;BME280;42848;42.524;12.052;2023-02-13T01:48:18;98287.13;;;5.77;100.00
56944;BME280;42848;42.524;12.052;2023-02-13T01:50:56;98291.31;;;5.90;100.00
56944;BME280;42848;42.524;12.052;2023-02-13T01:53:32;98290.28;;;5.74;100.00
56944;BME280;42848;42.524;12.052;2023-02-13T01:56:05;98294.06;;;5.73;100.00
56944;BME280;42848;42.524;12.052;2023-02-13T01:58:36;98298.72;;;5.78;100.00
56944;BME280;42848;42.524;12.052;2023-02-13T02:01:05;98304.41;;;5.81;100.00
56944;BME280;42848;42.524;12.052;2023-02-13T02:03:41;98284.41;;;5.77;100.00
56944;BME280;42848;42.524;12.052;2023-02-13T02:06:11;98288.34;;;5.69;100.00
56944;BME280;42848;42.524;12.052;2023-02-13T02:08:39;98289.22;;;5.75;100.00
56944;BME280;42848;42.524;12.052;2023-02-13T02:11:12;98291.47;;;5.83;100.00
56944;BME280;42848;42.524;12.052;2023-02-13T02:13:40;98295.75;;;5.79;100.00
56944;BME280;42848;42.524;12.052;2023-02-13T02:16:06;98292.94;;;5.69;100.00
56944;BME280;42848;42.524;12.052;2023-02-13T02:18:31;98299.94;;;5.70;100.00
56944;BME280;42848;42.524;12.052;2023-02-13T02:21:12;98297.75;;;5.67;100.00
56944;BME280;42848;42.524;12.052;2023-02-13T02:31:46;98297.28;;;5.53;100.00
56944;BME280;42848;42.524;12.052;2023-02-13T02:36:56;98304.13;;;5.61;100.00
56944;BME280;42848;42.524;12.052;2023-02-13T02:45:09;98315.44;;;5.41;100.00
56944;BME280;42848;42.524;12.052;2023-02-13T02:56:38;98313.16;;;5.50;100.00
56944;BME280;42848;42.524;12.052;2023-02-13T02:59:09;98313.97;;;5.50;100.00
56944;BME280;42848;42.524;12.052;2023-02-13T03:01:56;98321.81;;;5.35;100.00
56944;BME280;42848;42.524;12.052;2023-02-13T03:04:45;98317.13;;;5.47;100.00
56944;BME280;42848;42.524;12.052;2023-02-13T03:07:31;98316.66;;;5.50;100.00
56944;BME280;42848;42.524;12.052;2023-02-13T03:10:04;98320.88;;;5.46;100.00
56944;BME280;42848;42.524;12.052;2023-02-13T03:12:53;98324.34;;;5.41;100.00
56944;BME280;42848;42.524;12.052;2023-02-13T03:15:42;98323.28;;;5.42;100.00
56944;BME280;42848;42.524;12.052;2023-02-13T03:18:34;98324.91;;;5.43;100.00
56944;BME280;42848;42.524;12.052;2023-02-13T03:30:18;98323.91;;;5.50;100.00
56944;BME280;42848;42.524;12.052;2023-02-13T03:35:32;98329.47;;;5.43;100.00
56944;BME280;42848;42.524;12.052;2023-02-13T03:38:28;98330.94;;;5.34;100.00
56944;BME280;42848;42.524;12.052;2023-02-13T03:41:04;98327.28;;;5.40;100.00
56944;BME280;42848;42.524;12.052;2023-02-13T03:44:05;98324.59;;;5.40;100.00
56944;BME280;42848;42.524;12.052;2023-02-13T03:46:39;98317.75;;;5.32;100.00
56944;BME280;42848;42.524;12.052;2023-02-13T03:49:10;98320.84;;;5.41;100.00
56944;BME280;42848;42.524;12.052;2023-02-13T03:52:10;98320.84;;;5.41;100.00
56944;BME280;42848;42.524;12.052;2023-02-13T03:54:45;98320.69;;;5.31;100.00
56944;BME280;42848;42.524;12.052;2023-02-13T03:57:33;98323.28;;;5.42;100.00
56944;BME280;42848;42.524;12.052;2023-02-13T04:00:20;98329.47;;;5.26;100.00
56944;BME280;42848;42.524;12.052;2023-02-13T04:02:58;98331.09;;;5.44;100.00
56944;BME280;42848;42.524;12.052;2023-02-13T04:05:27;98325.56;;;5.34;100.00
56944;BME280;42848;42.524;12.052;2023-02-13T04:07:54;98332.06;;;5.38;100.00
56944;BME280;42848;42.524;12.052;2023-02-13T04:10:21;98331.59;;;5.41;100.00
56944;BME280;42848;42.524;12.052;2023-02-13T04:15:46;98336.75;;;5.26;100.00
56944;BME280;42848;42.524;12.052;2023-02-13T04:18:22;98335.19;;;5.30;100.00
56944;BME280;42848;42.524;12.052;2023-02-13T04:20:50;98343.66;;;5.38;100.00
56944;BME280;42848;42.524;12.052;2023-02-13T04:23:16;98335.59;;;5.38;100.00
56944;BME280;42848;42.524;12.052;2023-02-13T04:25:44;98342.69;;;5.28;100.00
56944;BME280;42848;42.524;12.052;2023-02-13T04:28:11;98344.31;;;5.29;100.00
56944;BME280;42848;42.524;12.052;2023-02-13T04:30:38;98333.66;;;5.34;100.00
56944;BME280;42848;42.524;12.052;2023-02-13T04:33:03;98341.47;;;5.35;100.00
56944;BME280;42848;42.524;12.052;2023-02-13T04:35:29;98344.00;;;5.25;100.00
56944;BME280;42848;42.524;12.052;2023-02-13T04:37:55;98334.38;;;5.29;100.00
56944;BME280;42848;42.524;12.052;2023-02-13T04:40:20;98344.16;;;5.35;100.00
56944;BME280;42848;42.524;12.052;2023-02-13T04:42:47;98342.44;;;5.29;100.00
56944;BME280;42848;42.524;12.052;2023-02-13T04:45:13;98337.00;;;5.24;100.00
56944;BME280;42848;42.524;12.052;2023-02-13T04:47:39;98342.63;;;5.23;100.00
56944;BME280;42848;42.524;12.052;2023-02-13T04:50:05;98337.31;;;5.28;100.00
56944;BME280;42848;42.524;12.052;2023-02-13T04:52:31;98338.72;;;5.30;100.00
56944;BME280;42848;42.524;12.052;2023-02-13T04:54:56;98347.78;;;5.24;100.00
56944;BME280;42848;42.524;12.052;2023-02-13T04:57:22;98347.78;;;5.24;100.00
56944;BME280;42848;42.524;12.052;2023-02-13T04:59:48;98353.97;;;5.25;100.00
56944;BME280;42848;42.524;12.052;2023-02-13T05:02:13;98344.66;;;5.32;100.00
56944;BME280;42848;42.524;12.052;2023-02-13T05:04:39;98352.50;;;5.17;100.00
56944;BME280;42848;42.524;12.052;2023-02-13T05:07:04;98340.09;;;5.16;100.00
56944;BME280;42848;42.524;12.052;2023-02-13T05:09:30;98339.59;;;5.19;100.00
56944;BME280;42848;42.524;12.052;2023-02-13T05:11:56;98345.06;;;5.24;100.00
56944;BME280;42848;42.524;12.052;2023-02-13T05:14:22;98348.34;;;5.26;100.00
56944;BME280;42848;42.524;12.052;2023-02-13T05:16:47;98352.34;;;5.24;100.00
56944;BME280;42848;42.524;12.052;2023-02-13T05:19:15;98347.78;;;5.24;100.00
56944;BME280;42848;42.524;12.052;2023-02-13T05:21:41;98359.03;;;5.21;100.00
56944;BME280;42848;42.524;12.052;2023-02-13T05:24:25;98361.78;;;5.26;100.00
56944;BME280;42848;42.524;12.052;2023-02-13T05:26:51;98352.19;;;5.13;100.00
56944;BME280;42848;42.524;12.052;2023-02-13T05:29:16;98349.72;;;5.29;100.00
56944;BME280;42848;42.524;12.052;2023-02-13T05:31:51;98353.81;;;5.31;100.00
56944;BME280;42848;42.524;12.052;2023-02-13T05:34:19;98357.38;;;5.20;100.00
56944;BME280;42848;42.524;12.052;2023-02-13T05:36:46;98359.41;;;5.30;100.00
56944;BME280;42848;42.524;12.052;2023-02-13T05:39:12;98355.59;;;5.26;100.00
56944;BME280;42848;42.524;12.052;2023-02-13T05:41:38;98354.63;;;5.32;100.00
56944;BME280;42848;42.524;12.052;2023-02-13T05:44:03;98362.84;;;5.25;100.00
56944;BME280;42848;42.524;12.052;2023-02-13T05:46:29;98367.69;;;5.23;100.00
56944;BME280;42848;42.524;12.052;2023-02-13T05:48:55;98362.59;;;5.27;100.00
56944;BME280;42848;42.524;12.052;2023-02-13T05:51:21;98365.69;;;5.19;100.00
56944;BME280;42848;42.524;12.052;2023-02-13T05:53:46;98369.47;;;5.18;100.00
56944;BME280;42848;42.524;12.052;2023-02-13T05:56:12;98373.22;;;5.17;100.00
56944;BME280;42848;42.524;12.052;2023-02-13T05:58:38;98362.59;;;5.43;100.00
56944;BME280;42848;42.524;12.052;2023-02-13T06:01:04;98366.63;;;5.24;100.00
56944;BME280;42848;42.524;12.052;2023-02-13T06:03:30;98377.94;;;5.26;100.00
56944;BME280;42848;42.524;12.052;2023-02-13T06:05:57;98371.75;;;5.26;100.00
56944;BME280;42848;42.524;12.052;2023-02-13T06:08:23;98380.88;;;5.08;100.00
56944;BME280;42848;42.524;12.052;2023-02-13T06:10:49;98390.19;;;5.17;100.00
56944;BME280;42848;42.524;12.052;2023-02-13T06:13:16;98377.28;;;5.19;100.00
56944;BME280;42848;42.524;12.052;2023-02-13T06:15:42;98385.47;;;5.24;100.00
56944;BME280;42848;42.524;12.052;2023-02-13T06:18:09;98390.84;;;5.24;100.00
56944;BME280;42848;42.524;12.052;2023-02-13T06:20:35;98395.00;;;5.15;100.00
56944;BME280;42848;42.524;12.052;2023-02-13T06:23:01;98397.03;;;5.25;100.00
56944;BME280;42848;42.524;12.052;2023-02-13T06:25:27;98393.94;;;5.16;100.00
56944;BME280;42848;42.524;12.052;2023-02-13T06:27:53;98400.78;;;5.24;100.00
56944;BME280;42848;42.524;12.052;2023-02-13T06:30:19;98407.00;;;5.24;100.00
56944;BME280;42848;42.524;12.052;2023-02-13T06:32:46;98410.09;;;5.16;100.00
56944;BME280;42848;42.524;12.052;2023-02-13T06:35:12;98405.63;;;5.22;100.00
56944;BME280;42848;42.524;12.052;2023-02-13T06:37:38;98406.19;;;5.40;100.00
56944;BME280;42848;42.524;12.052;2023-02-13T06:40:08;98408.94;;;5.46;100.00
56944;BME280;42848;42.524;12.052;2023-02-13T06:42:34;98405.84;;;5.54;100.00
56944;BME280;42848;42.524;12.052;2023-02-13T06:44:59;98421.94;;;5.49;100.00
56944;BME280;42848;42.524;12.052;2023-02-13T06:47:25;98410.25;;;5.60;100.00
56944;BME280;42848;42.524;12.052;2023-02-13T06:49:51;98411.47;;;5.35;100.00
56944;BME280;42848;42.524;12.052;2023-02-13T06:52:16;98414.44;;;5.51;100.00
56944;BME280;42848;42.524;12.052;2023-02-13T06:54:42;98406.56;;;5.66;100.00
56944;BME280;42848;42.524;12.052;2023-02-13T06:57:07;98410.56;;;5.80;100.00
56944;BME280;42848;42.524;12.052;2023-02-13T06:59:33;98417.44;;;5.71;100.00
56944;BME280;42848;42.524;12.052;2023-02-13T07:01:58;98408.59;;;5.76;100.00
56944;BME280;42848;42.524;12.052;2023-02-13T07:04:24;98417.25;;;5.78;100.00
56944;BME280;42848;42.524;12.052;2023-02-13T07:06:50;98422.00;;;5.70;100.00
56944;BME280;42848;42.524;12.052;2023-02-13T07:09:19;98426.91;;;5.90;100.00
56944;BME280;42848;42.524;12.052;2023-02-13T07:11:44;98418.22;;;5.88;100.00
56944;BME280;42848;42.524;12.052;2023-02-13T07:14:10;98424.78;;;5.92;100.00
56944;BME280;42848;42.524;12.052;2023-02-13T07:16:36;98426.88;;;6.07;100.00
56944;BME280;42848;42.524;12.052;2023-02-13T07:19:01;98424.22;;;6.12;100.00
56944;BME280;42848;42.524;12.052;2023-02-13T07:21:27;98426.69;;;6.14;100.00
56944;BME280;42848;42.524;12.052;2023-02-13T07:23:52;98424.78;;;5.92;100.00
56944;BME280;42848;42.524;12.052;2023-02-13T07:26:18;98430.63;;;6.06;100.00
56944;BME280;42848;42.524;12.052;2023-02-13T07:28:44;98433.38;;;6.11;100.00
56944;BME280;42848;42.524;12.052;2023-02-13T07:31:09;98437.00;;;6.00;100.00
56944;BME280;42848;42.524;12.052;2023-02-13T07:33:36;98437.97;;;6.11;100.00
56944;BME280;42848;42.524;12.052;2023-02-13T07:36:02;98452.34;;;6.16;100.00
56944;BME280;42848;42.524;12.052;2023-02-13T07:38:31;98452.59;;;6.15;100.00
56944;BME280;42848;42.524;12.052;2023-02-13T07:41:01;98452.03;;;6.13;100.00
56944;BME280;42848;42.524;12.052;2023-02-13T07:43:28;98446.69;;;6.18;100.00
56944;BME280;42848;42.524;12.052;2023-02-13T07:46:01;98447.69;;;6.12;100.00
56944;BME280;42848;42.524;12.052;2023-02-13T07:48:27;98451.03;;;6.19;100.00
56944;BME280;42848;42.524;12.052;2023-02-13T07:50:54;98448.41;;;6.24;100.00
56944;BME280;42848;42.524;12.052;2023-02-13T07:53:23;98456.50;;;6.24;100.00
56944;BME280;42848;42.524;12.052;2023-02-13T07:55:49;98455.72;;;6.28;100.00
56944;BME280;42848;42.524;12.052;2023-02-13T07:58:14;98464.16;;;6.32;100.00
56944;BME280;42848;42.524;12.052;2023-02-13T08:00:40;98466.34;;;6.35;100.00
56944;BME280;42848;42.524;12.052;2023-02-13T08:03:06;98464.63;;;6.29;100.00
56944;BME280;42848;42.524;12.052;2023-02-13T08:05:32;98462.75;;;6.30;100.00
56944;BME280;42848;42.524;12.052;2023-02-13T08:07:58;98470.81;;;6.46;100.00
56944;BME280;42848;42.524;12.052;2023-02-13T08:10:24;98461.66;;;6.47;100.00
56944;BME280;42848;42.524;12.052;2023-02-13T08:13:09;98464.25;;;6.59;100.00
56944;BME280;42848;42.524;12.052;2023-02-13T08:15:36;98474.66;;;6.50;100.00
56944;BME280;42848;42.524;12.052;2023-02-13T08:18:02;98468.75;;;6.53;100.00
56944;BME280;42848;42.524;12.052;2023-02-13T08:20:28;98469.38;;;6.61;100.00
56944;BME280;42848;42.524;12.052;2023-02-13T08:23:01;98479.16;;;6.67;100.00
56944;BME280;42848;42.524;12.052;2023-02-13T08:25:28;98475.75;;;6.76;100.00
56944;BME280;42848;42.524;12.052;2023-02-13T08:27:54;98476.53;;;6.72;100.00
56944;BME280;42848;42.524;12.052;2023-02-13T08:30:20;98472.56;;;6.79;100.00
56944;BME280;42848;42.524;12.052;2023-02-13T08:32:46;98478.28;;;6.83;100.00
56944;BME280;42848;42.524;12.052;2023-02-13T08:35:12;98475.00;;;6.81;100.00
56944;BME280;42848;42.524;12.052;2023-02-13T08:37:37;98480.41;;;6.81;100.00
56944;BME280;42848;42.524;12.052;2023-02-13T08:40:03;98483.28;;;6.74;100.00
56944;BME280;42848;42.524;12.052;2023-02-13T08:42:29;98485.75;;;6.76;100.00
56944;BME280;42848;42.524;12.052;2023-02-13T08:44:54;98490.28;;;6.70;100.00
56944;BME280;42848;42.524;12.052;2023-02-13T08:47:20;98487.31;;;6.72;100.00
56944;BME280;42848;42.524;12.052;2023-02-13T08:49:46;98482.78;;;6.99;100.00
56944;BME280;42848;42.524;12.052;2023-02-13T08:52:11;98482.88;;;7.09;100.00
56944;BME280;42848;42.524;12.052;2023-02-13T08:54:37;98479.41;;;6.87;100.00
56944;BME280;42848;42.524;12.052;2023-02-13T08:57:03;98481.16;;;6.98;100.00
56944;BME280;42848;42.524;12.052;2023-02-13T08:59:29;98486.03;;;7.01;100.00
56944;BME280;42848;42.524;12.052;2023-02-13T09:01:55;98487.19;;;7.05;100.00
56944;BME280;42848;42.524;12.052;2023-02-13T09:04:22;98481.44;;;7.24;99.82
56944;BME280;42848;42.524;12.052;2023-02-13T09:06:47;98478.22;;;7.27;100.00
56944;BME280;42848;42.524;12.052;2023-02-13T09:09:13;98483.31;;;7.23;100.00
56944;BME280;42848;42.524;12.052;2023-02-13T09:11:38;98476.22;;;7.17;97.77
56944;BME280;42848;42.524;12.052;2023-02-13T09:14:04;98474.22;;;7.34;96.99
56944;BME280;42848;42.524;12.052;2023-02-13T09:16:30;98478.81;;;7.34;97.43
56944;BME280;42848;42.524;12.052;2023-02-13T09:18:55;98485.00;;;7.61;100.00
56944;BME280;42848;42.524;12.052;2023-02-13T09:21:21;98489.28;;;7.57;99.28
56944;BME280;42848;42.524;12.052;2023-02-13T09:23:48;98485.50;;;7.58;94.68
56944;BME280;42848;42.524;12.052;2023-02-13T09:26:18;98491.13;;;7.84;99.03
56944;BME280;42848;42.524;12.052;2023-02-13T09:28:43;98485.81;;;7.94;100.00
56944;BME280;42848;42.524;12.052;2023-02-13T09:31:14;98483.56;;;7.86;100.00
56944;BME280;42848;42.524;12.052;2023-02-13T09:33:41;98489.25;;;7.84;100.00
56944;BME280;42848;42.524;12.052;2023-02-13T09:36:12;98487.63;;;7.83;100.00
56944;BME280;42848;42.524;12.052;2023-02-13T09:38:40;98493.22;;;7.77;100.00
56944;BME280;42848;42.524;12.052;2023-02-13T09:48:55;98493.56;;;7.80;100.00
56944;BME280;42848;42.524;12.052;2023-02-13T09:51:23;98486.00;;;7.82;100.00
56944;BME280;42848;42.524;12.052;2023-02-13T09:54:05;98490.78;;;7.75;100.00
56944;BME280;42848;42.524;12.052;2023-02-13T09:56:57;98495.13;;;7.76;100.00
56944;BME280;42848;42.524;12.052;2023-02-13T10:00:00;98499.16;;;7.74;100.00
56944;BME280;42848;42.524;12.052;2023-02-13T10:02:52;98494.38;;;7.81;100.00
56944;BME280;42848;42.524;12.052;2023-02-13T10:21:59;98479.91;;;7.97;99.12
56944;BME280;42848;42.524;12.052;2023-02-13T10:24:34;98472.03;;;7.95;97.49
56944;BME280;42848;42.524;12.052;2023-02-13T10:27:08;98474.75;;;7.95;99.03
56944;BME280;42848;42.524;12.052;2023-02-13T10:30:06;98476.13;;;8.03;96.56
56944;BME280;42848;42.524;12.052;2023-02-13T10:35:03;98472.19;;;8.21;100.00
56944;BME280;42848;42.524;12.052;2023-02-13T10:37:38;98478.41;;;8.16;97.13
56944;BME280;42848;42.524;12.052;2023-02-13T10:40:09;98470.28;;;8.21;96.21
56944;BME280;42848;42.524;12.052;2023-02-13T10:42:44;98466.56;;;8.27;95.44
56944;BME280;42848;42.524;12.052;2023-02-13T10:50:52;98467.09;;;8.30;97.72
56944;BME280;42848;42.524;12.052;2023-02-13T10:59:13;98455.81;;;8.38;92.02
56944;BME280;42848;42.524;12.052;2023-02-13T11:01:48;98456.34;;;8.40;92.69
56944;BME280;42848;42.524;12.052;2023-02-13T11:04:18;98467.22;;;8.45;89.89
56944;BME280;42848;42.524;12.052;2023-02-13T11:07:03;98446.63;;;8.39;91.67
56944;BME280;42848;42.524;12.052;2023-02-13T11:09:37;98457.25;;;8.50;92.50
56944;BME280;42848;42.524;12.052;2023-02-13T11:12:33;98454.28;;;8.52;93.84
56944;BME280;42848;42.524;12.052;2023-02-13T11:15:02;98458.88;;;8.51;94.39
56944;BME280;42848;42.524;12.052;2023-02-13T11:17:35;98451.59;;;8.62;96.19
56944;BME280;42848;42.524;12.052;2023-02-13T11:23:24;98448.38;;;8.65;95.85
56944;BME280;42848;42.524;12.052;2023-02-13T11:25:56;98441.88;;;8.66;93.95
56944;BME280;42848;42.524;12.052;2023-02-13T11:28:24;98439.69;;;8.68;98.23
56944;BME280;42848;42.524;12.052;2023-02-13T11:30:52;98430.22;;;8.66;97.79
56944;BME280;42848;42.524;12.052;2023-02-13T11:33:23;98440.28;;;8.75;97.91
56944;BME280;42848;42.524;12.052;2023-02-13T11:35:49;98429.44;;;8.75;96.49
56944;BME280;42848;42.524;12.052;2023-02-13T11:40:41;98425.66;;;8.76;89.97
56944;BME280;42848;42.524;12.052;2023-02-13T11:46:14;98420.03;;;8.88;82.01
56944;BME280;42848;42.524;12.052;2023-02-13T11:48:42;98411.63;;;8.95;81.66
56944;BME280;42848;42.524;12.052;2023-02-13T11:51:09;98416.22;;;8.94;81.23
56944;BME280;42848;42.524;12.052;2023-02-13T11:53:37;98421.91;;;8.88;80.79
56944;BME280;42848;42.524;12.052;2023-02-13T11:56:12;98412.72;;;8.89;82.91
56944;BME280;42848;42.524;12.052;2023-02-13T11:58:39;98407.81;;;8.96;80.26
56944;BME280;42848;42.524;12.052;2023-02-13T12:04:15;98410.06;;;9.45;87.10
56944;BME280;42848;42.524;12.052;2023-02-13T12:07:01;98400.81;;;9.20;84.15
56944;BME280;42848;42.524;12.052;2023-02-13T12:09:28;98395.97;;;9.17;81.96
56944;BME280;42848;42.524;12.052;2023-02-13T12:11:57;98400.03;;;9.25;81.54
56944;BME280;42848;42.524;12.052;2023-02-13T12:14:30;98405.19;;;9.26;79.73
56944;BME280;42848;42.524;12.052;2023-02-13T12:17:09;98401.66;;;9.26;78.47
56944;BME280;42848;42.524;12.052;2023-02-13T12:19:47;98403.56;;;9.35;75.88
56944;BME280;42848;42.524;12.052;2023-02-13T12:36:15;98379.41;;;9.59;73.79
56944;BME280;42848;42.524;12.052;2023-02-13T12:41:25;98374.00;;;9.59;68.67
56944;BME280;42848;42.524;12.052;2023-02-13T12:52:24;98378.59;;;9.79;68.98
56944;BME280;42848;42.524;12.052;2023-02-13T13:00:52;98354.69;;;9.91;66.11
56944;BME280;42848;42.524;12.052;2023-02-13T13:03:42;98355.50;;;9.87;64.62
56944;BME280;42848;42.524;12.052;2023-02-13T13:06:45;98358.25;;;9.77;60.77
56944;BME280;42848;42.524;12.052;2023-02-13T13:22:48;98344.13;;;9.85;66.56
56944;BME280;42848;42.524;12.052;2023-02-13T13:27:56;98341.94;;;9.97;66.59
56944;BME280;42848;42.524;12.052;2023-02-13T13:30:34;98340.03;;;9.97;67.60
56944;BME280;42848;42.524;12.052;2023-02-13T13:33:10;98333.78;;;10.02;67.35
56944;BME280;42848;42.524;12.052;2023-02-13T13:35:45;98342.19;;;10.01;66.71
56944;BME280;42848;42.524;12.052;2023-02-13T13:38:19;98335.38;;;10.08;66.97
56944;BME280;42848;42.524;12.052;2023-02-13T13:43:31;98330.72;;;10.14;65.29
56944;BME280;42848;42.524;12.052;2023-02-13T13:46:17;98334.00;;;10.16;65.31
56944;BME280;42848;42.524;12.052;2023-02-13T13:51:30;98337.25;;;10.23;65.79
56944;BME280;42848;42.524;12.052;2023-02-13T13:59:24;98353.00;;;10.26;64.05
56944;BME280;42848;42.524;12.052;2023-02-13T14:07:51;98341.97;;;10.57;62.17
56944;BME280;42848;42.524;12.052;2023-02-13T14:13:08;98344.41;;;10.58;56.72
56944;BME280;42848;42.524;12.052;2023-02-13T14:18:22;98347.63;;;10.70;56.53
56944;BME280;42848;42.524;12.052;2023-02-13T14:20:49;98339.19;;;10.72;55.50
56944;BME280;42848;42.524;12.052;2023-02-13T14:26:17;98344.09;;;10.70;55.89
56944;BME280;42848;42.524;12.052;2023-02-13T14:31:39;98348.25;;;10.96;55.33
56944;BME280;42848;42.524;12.052;2023-02-13T14:36:46;98362.31;;;11.08;71.07
56944;BME280;42848;42.524;12.052;2023-02-13T14:42:27;98337.19;;;11.22;67.39
56944;BME280;42848;42.524;12.052;2023-02-13T14:44:59;98354.22;;;11.32;75.66
56944;BME280;42848;42.524;12.052;2023-02-13T14:47:42;98333.50;;;11.07;55.76
56944;BME280;42848;42.524;12.052;2023-02-13T14:53:20;98342.59;;;11.27;56.91
56944;BME280;42848;42.524;12.052;2023-02-13T14:55:55;98345.41;;;11.17;54.63
56944;BME280;42848;42.524;12.052;2023-02-13T14:58:24;98348.03;;;11.27;57.50
56944;BME280;42848;42.524;12.052;2023-02-13T15:01:04;98348.56;;;11.29;59.87
56944;BME280;42848;42.524;12.052;2023-02-13T15:06:09;98340.97;;;11.26;54.47
56944;BME280;42848;42.524;12.052;2023-02-13T15:08:46;98347.25;;;11.21;55.58
56944;BME280;42848;42.524;12.052;2023-02-13T15:11:34;98338.88;;;11.18;57.24
56944;BME280;42848;42.524;12.052;2023-02-13T15:14:19;98346.97;;;11.23;60.50
56944;BME280;42848;42.524;12.052;2023-02-13T15:16:52;98350.06;;;11.45;67.61
56944;BME280;42848;42.524;12.052;2023-02-13T15:19:21;98337.81;;;11.43;66.09
56944;BME280;42848;42.524;12.052;2023-02-13T15:21:55;98347.63;;;11.44;67.72
56944;BME280;42848;42.524;12.052;2023-02-13T15:24:22;98339.81;;;11.32;58.26
56944;BME280;42848;42.524;12.052;2023-02-13T15:26:59;98354.44;;;11.70;98.86
56944;BME280;42848;42.524;12.052;2023-02-13T15:29:26;98330.72;;;11.47;76.46
56944;BME280;42848;42.524;12.052;2023-02-13T15:31:52;98325.81;;;11.49;67.96
56944;BME280;42848;42.524;12.052;2023-02-13T15:34:44;98335.88;;;11.48;65.97
56944;BME280;42848;42.524;12.052;2023-02-13T15:37:20;98344.56;;;11.50;73.72
56944;BME280;42848;42.524;12.052;2023-02-13T15:39:45;98343.09;;;11.34;61.32
56944;BME280;42848;42.524;12.052;2023-02-13T15:42:11;98335.25;;;11.27;59.48
56944;BME280;42848;42.524;12.052;2023-02-13T15:44:38;98346.34;;;11.36;59.44
56944;BME280;42848;42.524;12.052;2023-02-13T15:47:06;98337.16;;;11.27;56.59
56944;BME280;42848;42.524;12.052;2023-02-13T15:49:43;98334.38;;;11.32;62.76
56944;BME280;42848;42.524;12.052;2023-02-13T15:52:35;98325.00;;;11.19;58.05
56944;BME280;42848;42.524;12.052;2023-02-13T15:55:02;98334.56;;;11.11;58.31
56944;BME280;42848;42.524;12.052;2023-02-13T15:57:29;98346.44;;;11.21;60.32
56944;BME280;42848;42.524;12.052;2023-02-13T15:59:55;98339.75;;;11.08;59.94
56944;BME280;42848;42.524;12.052;2023-02-13T16:02:27;98339.75;;;11.08;60.86
56944;BME280;42848;42.524;12.052;2023-02-13T16:04:55;98340.88;;;11.02;62.73